createdAt,value
2018-06-15T00:04:53.251Z,2.56
2018-06-15T00:08:54.164Z,2.06
2018-06-15T00:14:54.973Z,2.63
2018-06-15T00:18:55.737Z,2.43
2018-06-15T00:20:56.566Z,2.89
2018-06-15T00:24:57.275Z,2.4
2018-06-15T00:30:58.143Z,2.94
2018-06-15T00:34:58.864Z,2.73
2018-06-15T00:40:59.762Z,2.78
2018-06-15T00:45:00.492Z,2.51
2018-06-15T00:47:01.529Z,2.61
2018-06-15T00:51:02.294Z,2.54
2018-06-15T00:57:03.155Z,2.76
2018-06-15T01:01:03.889Z,2.19
2018-06-15T01:07:04.709Z,2.79
2018-06-15T01:13:05.796Z,2.93
2018-06-15T01:17:06.575Z,2.55
2018-06-15T01:23:07.386Z,2.78
2018-06-15T01:27:08.187Z,2.56
2018-06-15T01:29:08.956Z,2.92
2018-06-15T01:33:09.612Z,2.81
2018-06-15T01:39:10.295Z,2.83
2018-06-15T01:43:10.974Z,2.31
2018-06-15T01:49:11.631Z,2.62
2018-06-15T01:53:12.327Z,2.62
2018-06-15T01:55:13.108Z,3.26
2018-06-15T01:59:13.756Z,2.6
2018-06-15T02:05:14.451Z,3.38
2018-06-15T02:09:15.191Z,3.22
2018-06-15T02:15:16.272Z,2.58
2018-06-15T02:21:17.267Z,3.04
2018-06-15T02:25:17.920Z,3.12
2018-06-15T02:31:18.657Z,3.26
2018-06-15T02:35:19.407Z,3.16
2018-06-15T02:37:20.234Z,3.51
2018-06-15T02:41:21.069Z,3.63
2018-06-15T02:47:21.846Z,3.06
2018-06-15T02:51:22.748Z,3.18
2018-06-15T02:57:23.488Z,2.95
2018-06-15T03:03:24.389Z,2.78
2018-06-15T03:07:25.153Z,2.83
2018-06-15T03:13:25.763Z,3.27
2018-06-15T03:17:26.666Z,2.74
2018-06-15T03:23:27.454Z,2.91
2018-06-15T03:29:28.118Z,3.38
2018-06-15T03:33:29.044Z,3.19
2018-06-15T03:39:29.747Z,3.63
2018-06-15T03:43:30.394Z,3.45
2018-06-15T03:45:31.169Z,3.42
2018-06-15T03:49:31.998Z,3.71
2018-06-15T03:55:32.727Z,3.88
2018-06-15T03:59:33.483Z,3.95
2018-06-15T04:05:34.467Z,4.3
2018-06-15T04:11:35.169Z,4.53
2018-06-15T04:15:35.908Z,4.09
2018-06-15T04:21:36.674Z,4.44
2018-06-15T04:25:37.441Z,4.47
2018-06-15T04:27:39.628Z,4.73
2018-06-15T04:31:40.558Z,4.54
2018-06-15T04:37:41.200Z,5.28
2018-06-15T04:41:41.999Z,4.77
2018-06-15T04:47:42.856Z,4.2
2018-06-15T04:53:43.828Z,4.11
2018-06-15T04:57:44.676Z,3.61
2018-06-15T05:03:45.596Z,3.52
2018-06-15T05:07:46.477Z,3.89
2018-06-15T05:09:47.365Z,3.69
2018-06-15T05:13:48.232Z,3.69
2018-06-15T05:19:49.010Z,4.15
2018-06-15T05:23:49.701Z,4.06
2018-06-15T05:29:50.753Z,4.74
2018-06-15T05:33:51.452Z,4.75
2018-06-15T05:35:52.109Z,4.09
2018-06-15T05:39:53.157Z,3.86
2018-06-15T05:45:53.820Z,3.92
2018-06-15T05:49:54.665Z,4.1
2018-06-15T05:55:55.449Z,4.31
2018-06-15T06:01:56.441Z,4.28
2018-06-15T06:05:57.120Z,4.09
2018-06-15T06:11:57.964Z,4.07
2018-06-15T06:15:58.660Z,3.59
2018-06-15T06:17:59.345Z,4.04
2018-06-15T06:22:00.232Z,3.79
2018-06-15T06:28:01.176Z,3.34
2018-06-15T06:32:01.944Z,3.18
2018-06-15T06:38:02.680Z,3.01
2018-06-15T06:42:03.362Z,3.02
2018-06-15T06:44:04.060Z,2.65
2018-06-15T06:48:04.859Z,2.95
2018-06-15T06:54:05.612Z,3.13
2018-06-15T06:58:06.311Z,2.96
2018-06-15T07:04:07.038Z,2.94
2018-06-15T07:10:07.892Z,3.21
2018-06-15T07:14:08.760Z,2.68
2018-06-15T07:20:09.492Z,3.12
2018-06-15T07:24:10.142Z,2.67
2018-06-15T07:26:10.735Z,2.75
2018-06-15T07:30:11.916Z,2.88
2018-06-15T07:36:12.668Z,3.03
2018-06-15T07:40:13.415Z,2.89
2018-06-15T07:46:14.202Z,2.98
2018-06-15T07:52:14.947Z,2.87
2018-06-15T07:56:15.746Z,2.54
2018-06-15T08:02:16.418Z,2.59
2018-06-15T08:06:17.146Z,2.52
2018-06-15T08:08:17.936Z,2.57
2018-06-15T08:12:18.575Z,2.72
2018-06-15T08:18:19.307Z,2.94
2018-06-15T08:22:20.058Z,2.6
2018-06-15T08:28:20.766Z,2.5
2018-06-15T08:32:21.639Z,2.55
2018-06-15T08:34:22.346Z,2.59
2018-06-15T08:38:22.955Z,2.21
2018-06-15T08:44:24.475Z,2.41
2018-06-15T08:48:25.340Z,2.33
2018-06-15T08:54:26.114Z,2.32
2018-06-15T09:00:26.960Z,2.47
2018-06-15T09:04:27.692Z,2.25
2018-06-15T09:10:28.454Z,2.43
2018-06-15T09:14:29.362Z,2.24
2018-06-15T09:16:30.128Z,2.57
2018-06-15T09:20:30.891Z,2.61
2018-06-15T09:26:31.697Z,2.69
2018-06-15T09:30:33.157Z,2.57
2018-06-15T09:36:34.131Z,2.7
2018-06-15T09:42:34.855Z,2.62
2018-06-15T09:46:35.688Z,2.31
2018-06-15T09:52:36.428Z,2.89
2018-06-15T09:56:37.113Z,2.53
2018-06-15T10:02:37.914Z,2.6
2018-06-15T10:08:38.651Z,2.94
2018-06-15T10:12:39.411Z,2.61
2018-06-15T10:18:40.172Z,2.85
2018-06-15T10:22:40.973Z,2.69
2018-06-15T10:24:41.725Z,2.91
2018-06-15T10:28:42.498Z,2.62
2018-06-15T10:34:43.409Z,2.8
2018-06-15T10:38:44.097Z,2.58
2018-06-15T10:44:45.008Z,2.89
2018-06-15T10:50:45.697Z,2.62
2018-06-15T10:54:46.484Z,2.68
2018-06-15T11:00:47.267Z,2.96
2018-06-15T11:04:47.996Z,2.61
2018-06-15T11:06:48.885Z,2.64
2018-06-15T11:10:49.653Z,2.64
2018-06-15T11:16:50.464Z,2.7
2018-06-15T11:20:51.404Z,2.41
2018-06-15T11:26:52.234Z,3.06
2018-06-15T11:30:53.102Z,2.83
2018-06-15T11:32:53.768Z,2.97
2018-06-15T11:36:54.795Z,2.54
2018-06-15T11:42:55.512Z,3.09
2018-06-15T11:46:56.361Z,2.38
2018-06-15T11:52:57.124Z,2.74
2018-06-15T11:58:57.905Z,2.91
2018-06-15T12:02:58.646Z,2.77
2018-06-15T12:08:59.405Z,3.15
2018-06-15T12:13:00.173Z,2.87
2018-06-15T12:15:01.949Z,3.04
2018-06-15T12:19:02.781Z,2.64
2018-06-15T12:25:03.595Z,2.72
2018-06-15T12:29:04.700Z,2.65
2018-06-15T12:35:05.495Z,3.21
2018-06-15T12:41:06.239Z,2.92
2018-06-15T12:45:07.538Z,2.62
2018-06-15T12:51:08.142Z,3.08
2018-06-15T12:55:08.858Z,3.05
2018-06-15T13:01:09.687Z,2.93
2018-06-15T13:07:10.426Z,2.92
2018-06-15T13:11:11.347Z,2.5
2018-06-15T13:17:12.010Z,2.8
2018-06-15T13:21:12.831Z,2.47
2018-06-15T13:23:13.567Z,2.7
2018-06-15T13:27:14.465Z,2.35
2018-06-15T13:33:15.291Z,2.54
2018-06-15T13:37:16.094Z,2.41
2018-06-15T13:43:16.880Z,2.32
2018-06-15T13:49:17.638Z,2.49
2018-06-15T13:53:18.449Z,2.32
2018-06-15T13:59:19.194Z,2.38
2018-06-15T14:03:20.643Z,2.19
2018-06-15T14:05:21.390Z,2.23
2018-06-15T14:09:22.611Z,2.21
2018-06-15T14:15:24.244Z,2.47
2018-06-15T14:19:25.976Z,2.15
2018-06-15T14:25:26.925Z,2.09
2018-06-15T14:29:27.771Z,1.88
2018-06-15T14:31:28.575Z,2.08
2018-06-15T14:35:30.074Z,1.85
2018-06-15T14:41:30.861Z,2.03
2018-06-15T14:45:31.787Z,2.04
2018-06-15T14:51:32.492Z,2.17
2018-06-15T14:57:34.386Z,2.33
2018-06-15T15:01:36.120Z,2.26
2018-06-15T15:07:37.209Z,2.06
2018-06-15T15:11:38.028Z,1.99
2018-06-15T15:13:39.000Z,2.42
2018-06-15T15:17:39.805Z,2.06
2018-06-15T15:23:40.832Z,2.35
2018-06-15T15:27:42.140Z,2.12
2018-06-15T15:33:43.561Z,2.18
2018-06-15T15:39:44.423Z,2.06
2018-06-15T15:43:45.633Z,1.98
2018-06-15T15:49:47.232Z,2.18
2018-06-15T15:53:47.939Z,2.24
2018-06-15T15:59:48.619Z,1.93
2018-06-15T16:05:53.936Z,2.29
2018-06-15T16:05:54.038Z,2.29
2018-06-15T16:09:59.338Z,1.94
2018-06-15T16:16:00.640Z,2.7
2018-06-15T16:20:01.847Z,2.08
2018-06-15T16:26:02.574Z,2.35
2018-06-15T16:32:03.476Z,2.34
2018-06-15T16:47:57.182Z,2.35
2018-06-15T16:47:57.411Z,2.14
2018-06-15T16:47:57.540Z,2.41
2018-06-15T16:51:58.398Z,2.08
2018-06-15T16:57:59.245Z,2.75
2018-06-15T17:02:00.497Z,2.22
2018-06-15T17:04:01.146Z,2.53
2018-06-15T17:08:02.006Z,2.48
2018-06-15T17:14:02.751Z,2.67
2018-06-15T17:18:03.546Z,2.3
2018-06-15T17:24:04.394Z,2.91
2018-06-15T17:28:05.235Z,2.5
2018-06-15T17:30:05.948Z,2.74
2018-06-15T17:34:06.690Z,2.16
2018-06-15T17:40:07.560Z,2.88
2018-06-15T17:44:08.198Z,2.8
2018-06-15T17:50:09.014Z,2.73
2018-06-15T17:56:09.795Z,2.95
2018-06-15T18:00:10.758Z,2.82
2018-06-15T18:06:11.529Z,2.66
2018-06-15T18:10:12.359Z,2.41
2018-06-15T18:12:13.026Z,2.89
2018-06-15T18:16:14.019Z,2.7
2018-06-15T18:22:14.698Z,2.83
2018-06-15T18:26:15.470Z,2.77
2018-06-15T18:32:16.190Z,2.89
2018-06-15T18:38:16.906Z,2.97
2018-06-15T18:42:17.721Z,2.83
2018-06-15T18:48:18.517Z,3.07
2018-06-15T18:52:19.247Z,3.19
2018-06-15T18:54:19.966Z,3.31
2018-06-15T18:58:20.689Z,2.61
2018-06-15T19:04:21.573Z,2.93
2018-06-15T19:08:22.358Z,2.77
2018-06-15T19:14:23.170Z,3.42
2018-06-15T19:18:23.920Z,3.01
2018-06-15T19:20:24.605Z,3.25
2018-06-15T19:24:25.370Z,3.08
2018-06-15T19:30:26.511Z,3.59
2018-06-15T19:34:27.351Z,3.18
2018-06-15T19:40:28.622Z,3.45
2018-06-15T19:46:29.436Z,3.35
2018-06-15T19:50:30.520Z,3.39
2018-06-15T19:56:31.440Z,3.91
2018-06-15T20:00:32.448Z,3.49
2018-06-15T20:02:33.176Z,4.21
2018-06-15T20:06:34.106Z,3.6
2018-06-15T20:12:34.806Z,3.92
2018-06-15T20:16:35.555Z,4.1
2018-06-15T20:22:36.233Z,4.43
2018-06-15T20:28:37.064Z,4.57
2018-06-15T20:32:37.831Z,4.3
2018-06-15T20:42:41.448Z,4.4
2018-06-15T20:42:41.625Z,4.84
2018-06-15T20:48:43.735Z,4.44
2018-06-15T20:54:44.665Z,4.38
2018-06-15T20:58:45.637Z,4.03
2018-06-15T21:04:46.578Z,4.4
2018-06-15T21:08:48.351Z,4.39
2018-06-15T21:10:49.608Z,3.98
2018-06-15T21:14:50.884Z,3.92
2018-06-15T21:20:51.894Z,4.6
2018-06-15T21:24:53.042Z,4.43
2018-06-15T21:30:53.831Z,4.44
2018-06-15T21:34:54.529Z,4.24
2018-06-15T21:36:55.296Z,4.67
2018-06-15T21:40:56.955Z,4.32
2018-06-15T21:46:58.103Z,5
2018-06-15T21:50:59.027Z,4.53
2018-06-15T21:56:59.907Z,4.22
2018-06-15T22:03:00.578Z,4.51
2018-06-15T22:07:01.546Z,4.32
2018-06-15T22:13:02.285Z,4.27
2018-06-15T22:17:03.137Z,3.98
2018-06-15T22:19:04.221Z,4.94
2018-06-15T22:23:05.023Z,4.67
2018-06-15T22:29:06.122Z,5.21
2018-06-15T22:33:07.082Z,5.3
2018-06-15T22:39:07.859Z,4.3
2018-06-15T22:45:09.224Z,4.15
2018-06-15T22:49:09.992Z,3.71
2018-06-15T22:55:10.745Z,4.82
2018-06-15T22:59:11.470Z,4.18
2018-06-15T23:05:12.280Z,4.39
2018-06-15T23:11:13.070Z,4.44
2018-06-15T23:15:15.280Z,4.29
2018-06-15T23:21:16.065Z,4.18
2018-06-15T23:25:16.815Z,4.55
2018-06-15T23:27:17.453Z,4.86
2018-06-15T23:31:18.191Z,5.7
2018-06-15T23:37:18.894Z,6.94
2018-06-15T23:41:19.913Z,5.88
2018-06-15T23:47:20.689Z,6.99
2018-06-15T23:53:21.452Z,6.88
2018-06-15T23:57:22.311Z,6.56
